sensor_id;sensor_type;location;lat;lon;timestamp;pressure;altitude;pressure_sealevel;temperature;humidity
7407;BME280;3745;56.964;24.128;2023-12-29T00:00:39;99763.44;;;4.48;100.00
7407;BME280;3745;56.964;24.128;2023-12-29T00:03:05;99889.72;;;5.36;100.00
7407;BME280;3745;56.964;24.128;2023-12-29T00:05:31;99847.34;;;5.07;100.00
7407;BME280;3745;56.964;24.128;2023-12-29T00:07:56;99891.31;;;5.33;100.00
7407;BME280;3745;56.964;24.128;2023-12-29T00:10:22;99853.34;;;5.13;100.00
7407;BME280;3745;56.964;24.128;2023-12-29T00:12:47;99898.16;;;5.40;100.00
7407;BME280;3745;56.964;24.128;2023-12-29T00:15:17;99852.59;;;5.19;100.00
7407;BME280;3745;56.964;24.128;2023-12-29T00:17:43;99904.28;;;5.54;100.00
7407;BME280;3745;56.964;24.128;2023-12-29T00:20:09;99854.38;;;5.23;100.00
7407;BME280;3745;56.964;24.128;2023-12-29T00:22:34;99882.19;;;5.36;100.00
7407;BME280;3745;56.964;24.128;2023-12-29T00:25:00;99903.47;;;5.55;100.00
7407;BME280;3745;56.964;24.128;2023-12-29T00:27:26;99876.41;;;5.39;100.00
7407;BME280;3745;56.964;24.128;2023-12-29T00:29:51;99906.78;;;5.54;100.00
7407;BME280;3745;56.964;24.128;2023-12-29T00:32:17;99901.53;;;5.42;100.00
7407;BME280;3745;56.964;24.128;2023-12-29T00:34:43;99917.59;;;5.50;100.00
7407;BME280;3745;56.964;24.128;2023-12-29T00:37:09;99923.44;;;5.49;100.00
7407;BME280;3745;56.964;24.128;2023-12-29T00:39:35;99923.50;;;5.52;100.00
7407;BME280;3745;56.964;24.128;2023-12-29T00:42:04;99899.81;;;5.38;100.00
7407;BME280;3745;56.964;24.128;2023-12-29T00:44:31;99887.78;;;5.22;100.00
7407;BME280;3745;56.964;24.128;2023-12-29T00:46:57;99943.63;;;5.55;100.00
7407;BME280;3745;56.964;24.128;2023-12-29T00:49:22;99925.06;;;5.47;100.00
7407;BME280;3745;56.964;24.128;2023-12-29T00:51:48;99949.63;;;5.63;100.00
7407;BME280;3745;56.964;24.128;2023-12-29T00:54:14;99901.41;;;5.36;100.00
7407;BME280;3745;56.964;24.128;2023-12-29T00:56:39;99949.50;;;5.57;100.00
7407;BME280;3745;56.964;24.128;2023-12-29T00:59:05;99943.63;;;5.55;100.00
7407;BME280;3745;56.964;24.128;2023-12-29T01:01:34;99941.84;;;5.51;100.00
7407;BME280;3745;56.964;24.128;2023-12-29T01:04:01;99947.72;;;5.52;100.00
7407;BME280;3745;56.964;24.128;2023-12-29T01:06:26;99958.56;;;5.49;100.00
7407;BME280;3745;56.964;24.128;2023-12-29T01:08:54;99946.88;;;5.51;100.00
7407;BME280;3745;56.964;24.128;2023-12-29T01:11:19;99947.72;;;5.50;100.00
7407;BME280;3745;56.964;24.128;2023-12-29T01:13:45;99896.94;;;5.20;100.00
7407;BME280;3745;56.964;24.128;2023-12-29T01:16:10;99929.91;;;5.39;100.00
7407;BME280;3745;56.964;24.128;2023-12-29T01:18:36;99940.13;;;5.47;100.00
7407;BME280;3745;56.964;24.128;2023-12-29T01:21:04;99933.28;;;5.40;100.00
7407;BME280;3745;56.964;24.128;2023-12-29T01:23:29;99945.91;;;5.44;100.00
7407;BME280;3745;56.964;24.128;2023-12-29T01:25:55;99928.50;;;5.52;100.00
7407;BME280;3745;56.964;24.128;2023-12-29T01:28:21;99798.09;;;4.68;100.00
7407;BME280;3745;56.964;24.128;2023-12-29T01:30:47;99930.03;;;5.44;100.00
7407;BME280;3745;56.964;24.128;2023-12-29T01:33:12;99929.91;;;5.38;100.00
7407;BME280;3745;56.964;24.128;2023-12-29T01:35:38;99940.13;;;5.47;100.00
7407;BME280;3745;56.964;24.128;2023-12-29T01:38:04;99950.22;;;5.50;100.00
7407;BME280;3745;56.964;24.128;2023-12-29T01:40:30;99946.75;;;5.45;100.00
7407;BME280;3745;56.964;24.128;2023-12-29T01:42:55;99918.84;;;5.30;100.00
7407;BME280;3745;56.964;24.128;2023-12-29T01:45:23;99942.59;;;5.45;100.00
7407;BME280;3745;56.964;24.128;2023-12-29T01:47:49;99950.16;;;5.47;100.00
7407;BME280;3745;56.964;24.128;2023-12-29T01:50:18;99950.16;;;5.47;100.00
7407;BME280;3745;56.964;24.128;2023-12-29T01:52:45;99941.63;;;5.39;100.00
7407;BME280;3745;56.964;24.128;2023-12-29T01:55:17;99943.44;;;5.46;100.00
7407;BME280;3745;56.964;24.128;2023-12-29T01:57:43;99956.78;;;5.45;100.00
7407;BME280;3745;56.964;24.128;2023-12-29T02:00:11;99951.88;;;5.51;100.00
7407;BME280;3745;56.964;24.128;2023-12-29T02:02:37;99951.88;;;5.51;100.00
7407;BME280;3745;56.964;24.128;2023-12-29T02:05:03;99918.16;;;5.37;100.00
7407;BME280;3745;56.964;24.128;2023-12-29T02:07:29;99929.78;;;5.32;100.00
7407;BME280;3745;56.964;24.128;2023-12-29T02:09:58;99911.28;;;5.27;100.00
7407;BME280;3745;56.964;24.128;2023-12-29T02:12:25;99884.34;;;5.17;100.00
7407;BME280;3745;56.964;24.128;2023-12-29T02:14:51;99941.78;;;5.48;100.00
7407;BME280;3745;56.964;24.128;2023-12-29T02:17:38;99948.50;;;5.49;100.00
7407;BME280;3745;56.964;24.128;2023-12-29T02:20:05;99948.50;;;5.49;100.00
7407;BME280;3745;56.964;24.128;2023-12-29T02:22:32;99929.06;;;5.37;100.00
7407;BME280;3745;56.964;24.128;2023-12-29T02:24:58;99941.84;;;5.51;100.00
7407;BME280;3745;56.964;24.128;2023-12-29T02:27:57;99946.19;;;5.58;100.00
7407;BME280;3745;56.964;24.128;2023-12-29T02:33:21;99898.91;;;5.34;100.00
7407;BME280;3745;56.964;24.128;2023-12-29T02:35:48;99947.84;;;5.58;100.00
7407;BME280;3745;56.964;24.128;2023-12-29T02:38:15;99869.13;;;5.11;100.00
7407;BME280;3745;56.964;24.128;2023-12-29T02:40:41;99907.34;;;5.39;100.00
7407;BME280;3745;56.964;24.128;2023-12-29T02:43:08;99935.41;;;5.62;100.00
7407;BME280;3745;56.964;24.128;2023-12-29T02:45:34;99800.84;;;4.79;100.00
7407;BME280;3745;56.964;24.128;2023-12-29T02:48:00;99924.34;;;5.53;100.00
7407;BME280;3745;56.964;24.128;2023-12-29T02:50:25;99892.97;;;5.31;100.00
7407;BME280;3745;56.964;24.128;2023-12-29T02:52:51;99936.91;;;5.54;100.00
7407;BME280;3745;56.964;24.128;2023-12-29T02:55:17;99930.16;;;5.50;100.00
7407;BME280;3745;56.964;24.128;2023-12-29T02:57:42;99926.91;;;5.57;100.00
7407;BME280;3745;56.964;24.128;2023-12-29T03:00:08;99904.94;;;5.44;100.00
7407;BME280;3745;56.964;24.128;2023-12-29T03:02:34;99877.06;;;5.30;100.00
7407;BME280;3745;56.964;24.128;2023-12-29T03:04:59;99920.19;;;5.55;100.00
7407;BME280;3745;56.964;24.128;2023-12-29T03:07:25;99883.00;;;5.34;100.00
7407;BME280;3745;56.964;24.128;2023-12-29T03:09:51;99899.81;;;5.38;100.00
7407;BME280;3745;56.964;24.128;2023-12-29T03:12:17;99871.09;;;5.24;100.00
7407;BME280;3745;56.964;24.128;2023-12-29T03:14:44;99918.41;;;5.49;100.00
7407;BME280;3745;56.964;24.128;2023-12-29T03:17:11;99896.34;;;5.33;100.00
7407;BME280;3745;56.964;24.128;2023-12-29T03:19:36;99866.69;;;5.14;100.00
7407;BME280;3745;56.964;24.128;2023-12-29T03:22:02;99877.63;;;5.16;100.00
7407;BME280;3745;56.964;24.128;2023-12-29T03:24:29;99904.81;;;5.38;100.00
7407;BME280;3745;56.964;24.128;2023-12-29T03:26:54;99880.38;;;5.29;100.00
7407;BME280;3745;56.964;24.128;2023-12-29T03:29:20;99865.31;;;5.28;100.00
7407;BME280;3745;56.964;24.128;2023-12-29T03:31:46;99882.88;;;5.28;100.00
7407;BME280;3745;56.964;24.128;2023-12-29T03:34:12;99894.63;;;5.29;100.00
7407;BME280;3745;56.964;24.128;2023-12-29T03:36:38;99892.97;;;5.31;100.00
7407;BME280;3745;56.964;24.128;2023-12-29T03:39:03;99902.25;;;5.35;100.00
7407;BME280;3745;56.964;24.128;2023-12-29T03:41:29;99899.81;;;5.38;100.00
7407;BME280;3745;56.964;24.128;2023-12-29T03:43:55;99898.09;;;5.37;100.00
7407;BME280;3745;56.964;24.128;2023-12-29T03:46:22;99901.47;;;5.39;100.00
7407;BME280;3745;56.964;24.128;2023-12-29T03:48:48;99898.13;;;5.38;100.00
7407;BME280;3745;56.964;24.128;2023-12-29T03:51:15;99898.16;;;5.40;100.00
7407;BME280;3745;56.964;24.128;2023-12-29T03:53:41;99852.50;;;5.13;100.00
7407;BME280;3745;56.964;24.128;2023-12-29T03:56:14;99893.19;;;5.43;100.00
7407;BME280;3745;56.964;24.128;2023-12-29T03:58:41;99723.31;;;4.45;100.00
7407;BME280;3745;56.964;24.128;2023-12-29T04:01:11;99881.47;;;5.42;100.00
7407;BME280;3745;56.964;24.128;2023-12-29T04:03:37;99869.59;;;5.33;100.00
7407;BME280;3745;56.964;24.128;2023-12-29T04:06:03;99898.34;;;5.49;100.00
7407;BME280;3745;56.964;24.128;2023-12-29T04:08:29;99857.84;;;5.31;100.00
7407;BME280;3745;56.964;24.128;2023-12-29T04:10:55;99848.63;;;5.30;100.00
7407;BME280;3745;56.964;24.128;2023-12-29T04:13:20;99886.59;;;5.48;100.00
7407;BME280;3745;56.964;24.128;2023-12-29T04:15:46;99876.56;;;5.48;100.00
7407;BME280;3745;56.964;24.128;2023-12-29T04:18:11;99874.84;;;5.44;100.00
7407;BME280;3745;56.964;24.128;2023-12-29T04:20:37;99856.22;;;5.33;100.00
7407;BME280;3745;56.964;24.128;2023-12-29T04:23:05;99859.72;;;5.41;100.00
7407;BME280;3745;56.964;24.128;2023-12-29T04:25:31;99868.22;;;5.49;100.00
7407;BME280;3745;56.964;24.128;2023-12-29T04:27:56;99867.31;;;5.45;100.00
7407;BME280;3745;56.964;24.128;2023-12-29T04:30:22;99842.97;;;5.40;100.00
7407;BME280;3745;56.964;24.128;2023-12-29T04:32:48;99856.56;;;5.51;100.00
7407;BME280;3745;56.964;24.128;2023-12-29T04:35:13;99856.59;;;5.54;100.00
7407;BME280;3745;56.964;24.128;2023-12-29T04:37:40;99854.09;;;5.54;100.00
7407;BME280;3745;56.964;24.128;2023-12-29T04:40:07;99806.00;;;5.30;100.00
7407;BME280;3745;56.964;24.128;2023-12-29T04:42:33;99848.38;;;5.61;100.00
7407;BME280;3745;56.964;24.128;2023-12-29T04:44:58;99847.53;;;5.61;100.00
7407;BME280;3745;56.964;24.128;2023-12-29T04:47:24;99836.47;;;5.51;100.00
7407;BME280;3745;56.964;24.128;2023-12-29T04:49:49;99849.19;;;5.60;100.00
7407;BME280;3745;56.964;24.128;2023-12-29T04:52:15;99826.38;;;5.48;100.00
7407;BME280;3745;56.964;24.128;2023-12-29T04:54:40;99841.66;;;5.60;100.00
7407;BME280;3745;56.964;24.128;2023-12-29T04:57:06;99730.00;;;4.87;100.00
7407;BME280;3745;56.964;24.128;2023-12-29T04:59:31;99844.94;;;5.56;100.00
7407;BME280;3745;56.964;24.128;2023-12-29T05:01:57;99834.06;;;5.57;100.00
7407;BME280;3745;56.964;24.128;2023-12-29T05:04:22;99840.03;;;5.62;100.00
7407;BME280;3745;56.964;24.128;2023-12-29T05:06:48;99829.94;;;5.59;100.00
7407;BME280;3745;56.964;24.128;2023-12-29T05:09:13;99799.53;;;5.41;100.00
7407;BME280;3745;56.964;24.128;2023-12-29T05:11:39;99824.03;;;5.57;100.00
7407;BME280;3745;56.964;24.128;2023-12-29T05:14:05;99798.72;;;5.43;100.00
7407;BME280;3745;56.964;24.128;2023-12-29T05:16:31;99813.19;;;5.58;100.00
7407;BME280;3745;56.964;24.128;2023-12-29T05:18:58;99793.03;;;5.52;100.00
7407;BME280;3745;56.964;24.128;2023-12-29T05:21:23;99733.03;;;5.16;100.00
7407;BME280;3745;56.964;24.128;2023-12-29T05:23:51;99804.09;;;5.65;100.00
7407;BME280;3745;56.964;24.128;2023-12-29T05:26:16;99770.25;;;5.41;100.00
7407;BME280;3745;56.964;24.128;2023-12-29T05:28:42;99756.72;;;5.33;100.00
7407;BME280;3745;56.964;24.128;2023-12-29T05:31:08;99757.53;;;5.31;100.00
7407;BME280;3745;56.964;24.128;2023-12-29T05:33:34;99780.31;;;5.44;100.00
7407;BME280;3745;56.964;24.128;2023-12-29T05:36:05;99727.16;;;5.16;100.00
7407;BME280;3745;56.964;24.128;2023-12-29T05:38:32;99785.53;;;5.54;100.00
7407;BME280;3745;56.964;24.128;2023-12-29T05:40:58;99771.25;;;5.51;100.00
7407;BME280;3745;56.964;24.128;2023-12-29T05:43:26;99783.09;;;5.58;100.00
7407;BME280;3745;56.964;24.128;2023-12-29T05:45:52;99769.69;;;5.56;100.00
7407;BME280;3745;56.964;24.128;2023-12-29T05:48:17;99741.03;;;5.43;100.00
7407;BME280;3745;56.964;24.128;2023-12-29T05:50:43;99766.44;;;5.63;100.00
7407;BME280;3745;56.964;24.128;2023-12-29T05:53:08;99759.75;;;5.62;100.00
7407;BME280;3745;56.964;24.128;2023-12-29T05:55:34;99758.88;;;5.62;100.00
7407;BME280;3745;56.964;24.128;2023-12-29T05:57:59;99757.19;;;5.61;100.00
7407;BME280;3745;56.964;24.128;2023-12-29T06:00:25;99752.91;;;5.55;100.00
7407;BME280;3745;56.964;24.128;2023-12-29T06:02:50;99748.66;;;5.50;100.00
7407;BME280;3745;56.964;24.128;2023-12-29T06:05:16;99754.66;;;5.59;100.00
7407;BME280;3745;56.964;24.128;2023-12-29T06:07:42;99751.31;;;5.60;100.00
7407;BME280;3745;56.964;24.128;2023-12-29T06:10:08;99744.69;;;5.62;100.00
7407;BME280;3745;56.964;24.128;2023-12-29T06:12:34;99699.19;;;5.41;100.00
7407;BME280;3745;56.964;24.128;2023-12-29T06:15:00;99743.16;;;5.73;100.00
7407;BME280;3745;56.964;24.128;2023-12-29T06:17:26;99739.91;;;5.77;100.00
7407;BME280;3745;56.964;24.128;2023-12-29T06:19:52;99739.94;;;5.80;100.00
7407;BME280;3745;56.964;24.128;2023-12-29T06:22:18;99696.13;;;5.60;100.00
7407;BME280;3745;56.964;24.128;2023-12-29T06:24:45;99679.25;;;5.50;100.00
7407;BME280;3745;56.964;24.128;2023-12-29T06:27:11;99730.03;;;5.86;100.00
7407;BME280;3745;56.964;24.128;2023-12-29T06:29:37;99692.03;;;5.65;100.00
7407;BME280;3745;56.964;24.128;2023-12-29T06:32:04;99720.00;;;5.86;100.00
7407;BME280;3745;56.964;24.128;2023-12-29T06:34:29;99708.28;;;5.88;100.00
7407;BME280;3745;56.964;24.128;2023-12-29T06:36:55;99681.16;;;5.66;100.00
7407;BME280;3745;56.964;24.128;2023-12-29T06:39:23;99729.25;;;5.90;100.00
7407;BME280;3745;56.964;24.128;2023-12-29T06:41:48;99589.94;;;5.06;100.00
7407;BME280;3745;56.964;24.128;2023-12-29T06:44:14;99720.16;;;5.98;100.00
7407;BME280;3745;56.964;24.128;2023-12-29T06:46:40;99700.03;;;5.95;100.00
7407;BME280;3745;56.964;24.128;2023-12-29T06:49:08;99681.38;;;5.80;100.00
7407;BME280;3745;56.964;24.128;2023-12-29T06:51:35;99718.50;;;6.00;100.00
7407;BME280;3745;56.964;24.128;2023-12-29T06:54:01;99694.94;;;5.89;100.00
7407;BME280;3745;56.964;24.128;2023-12-29T06:56:27;99664.56;;;5.74;100.00
7407;BME280;3745;56.964;24.128;2023-12-29T06:58:53;99672.97;;;5.79;100.00
7407;BME280;3745;56.964;24.128;2023-12-29T07:01:18;99711.94;;;6.09;100.00
7407;BME280;3745;56.964;24.128;2023-12-29T07:03:44;99693.44;;;6.04;100.00
7407;BME280;3745;56.964;24.128;2023-12-29T07:06:10;99707.72;;;6.08;100.00
7407;BME280;3745;56.964;24.128;2023-12-29T07:08:36;99608.13;;;5.46;100.00
7407;BME280;3745;56.964;24.128;2023-12-29T07:11:02;99683.22;;;5.91;100.00
7407;BME280;3745;56.964;24.128;2023-12-29T07:13:28;99688.25;;;5.91;100.00
7407;BME280;3745;56.964;24.128;2023-12-29T07:15:54;99688.28;;;5.94;100.00
7407;BME280;3745;56.964;24.128;2023-12-29T07:18:20;99674.88;;;5.92;100.00
7407;BME280;3745;56.964;24.128;2023-12-29T07:20:47;99693.47;;;6.07;100.00
7407;BME280;3745;56.964;24.128;2023-12-29T07:23:13;99669.91;;;5.95;100.00
7407;BME280;3745;56.964;24.128;2023-12-29T07:25:38;99693.59;;;6.16;100.00
7407;BME280;3745;56.964;24.128;2023-12-29T07:28:04;99690.28;;;6.17;100.00
7407;BME280;3745;56.964;24.128;2023-12-29T07:30:29;99691.13;;;6.19;100.00
7407;BME280;3745;56.964;24.128;2023-12-29T07:32:55;99683.63;;;6.22;100.00
7407;BME280;3745;56.964;24.128;2023-12-29T07:35:21;99545.28;;;5.39;100.00
7407;BME280;3745;56.964;24.128;2023-12-29T07:37:46;99631.34;;;5.90;100.00
7407;BME280;3745;56.964;24.128;2023-12-29T07:40:13;99655.00;;;6.08;100.00
7407;BME280;3745;56.964;24.128;2023-12-29T07:42:42;99666.16;;;6.29;100.00
7407;BME280;3745;56.964;24.128;2023-12-29T07:45:12;99623.13;;;6.04;100.00
7407;BME280;3745;56.964;24.128;2023-12-29T07:47:37;99598.66;;;5.86;100.00
7407;BME280;3745;56.964;24.128;2023-12-29T07:50:04;99645.06;;;6.17;100.00
7407;BME280;3745;56.964;24.128;2023-12-29T07:52:31;99645.09;;;6.20;100.00
7407;BME280;3745;56.964;24.128;2023-12-29T07:54:56;99655.16;;;6.20;100.00
7407;BME280;3745;56.964;24.128;2023-12-29T07:57:22;99654.44;;;6.31;100.00
7407;BME280;3745;56.964;24.128;2023-12-29T07:59:47;99662.81;;;6.30;100.00
7407;BME280;3745;56.964;24.128;2023-12-29T08:02:13;99635.06;;;6.20;100.00
7407;BME280;3745;56.964;24.128;2023-12-29T08:04:38;99619.09;;;6.16;100.00
7407;BME280;3745;56.964;24.128;2023-12-29T08:07:04;99645.22;;;6.29;100.00
7407;BME280;3745;56.964;24.128;2023-12-29T08:09:32;99652.00;;;6.36;100.00
7407;BME280;3745;56.964;24.128;2023-12-29T08:11:57;99603.13;;;6.10;100.00
7407;BME280;3745;56.964;24.128;2023-12-29T08:14:23;99602.22;;;6.06;100.00
7407;BME280;3745;56.964;24.128;2023-12-29T08:16:48;99662.06;;;6.36;100.00
7407;BME280;3745;56.964;24.128;2023-12-29T08:19:14;99646.94;;;6.33;100.00
7407;BME280;3745;56.964;24.128;2023-12-29T08:21:40;99645.13;;;6.23;100.00
7407;BME280;3745;56.964;24.128;2023-12-29T08:24:06;99625.81;;;6.17;100.00
7407;BME280;3745;56.964;24.128;2023-12-29T08:26:32;99633.50;;;6.31;100.00
7407;BME280;3745;56.964;24.128;2023-12-29T08:28:57;99611.66;;;6.24;100.00
7407;BME280;3745;56.964;24.128;2023-12-29T08:31:23;99626.78;;;6.27;100.00
7407;BME280;3745;56.964;24.128;2023-12-29T08:33:49;99592.25;;;6.12;100.00
7407;BME280;3745;56.964;24.128;2023-12-29T08:36:18;99626.88;;;6.36;100.00
7407;BME280;3745;56.964;24.128;2023-12-29T08:38:43;99602.38;;;6.17;100.00
7407;BME280;3745;56.964;24.128;2023-12-29T08:41:09;99633.53;;;6.34;100.00
7407;BME280;3745;56.964;24.128;2023-12-29T08:43:34;99635.22;;;6.35;100.00
7407;BME280;3745;56.964;24.128;2023-12-29T08:46:01;99611.59;;;6.18;100.00
7407;BME280;3745;56.964;24.128;2023-12-29T08:48:27;99636.94;;;6.36;100.00
7407;BME280;3745;56.964;24.128;2023-12-29T08:50:53;99589.72;;;6.08;100.00
7407;BME280;3745;56.964;24.128;2023-12-29T08:53:18;99642.81;;;6.38;100.00
7407;BME280;3745;56.964;24.128;2023-12-29T08:55:44;99632.72;;;6.35;100.00
7407;BME280;3745;56.964;24.128;2023-12-29T08:58:10;99599.81;;;6.14;100.00
7407;BME280;3745;56.964;24.128;2023-12-29T09:00:36;99599.81;;;6.14;100.00
7407;BME280;3745;56.964;24.128;2023-12-29T09:03:01;99620.09;;;6.29;100.00
7407;BME280;3745;56.964;24.128;2023-12-29T09:05:28;99614.06;;;6.16;100.00
7407;BME280;3745;56.964;24.128;2023-12-29T09:07:53;99558.56;;;5.90;100.00
7407;BME280;3745;56.964;24.128;2023-12-29T09:10:19;99534.16;;;5.83;100.00
7407;BME280;3745;56.964;24.128;2023-12-29T09:12:46;99620.94;;;6.29;100.00
7407;BME280;3745;56.964;24.128;2023-12-29T09:15:12;99591.41;;;6.09;100.00
7407;BME280;3745;56.964;24.128;2023-12-29T09:17:38;99616.72;;;6.27;100.00
7407;BME280;3745;56.964;24.128;2023-12-29T09:20:03;99601.66;;;6.27;100.00
7407;BME280;3745;56.964;24.128;2023-12-29T09:22:31;99584.72;;;6.11;100.00
7407;BME280;3745;56.964;24.128;2023-12-29T09:24:56;99598.16;;;6.16;100.00
7407;BME280;3745;56.964;24.128;2023-12-29T09:27:22;99569.59;;;6.05;100.00
7407;BME280;3745;56.964;24.128;2023-12-29T09:29:48;99613.31;;;6.22;100.00
7407;BME280;3745;56.964;24.128;2023-12-29T09:32:13;99503.88;;;5.68;100.00
7407;BME280;3745;56.964;24.128;2023-12-29T09:34:39;99605.78;;;6.23;100.00
7407;BME280;3745;56.964;24.128;2023-12-29T09:37:04;99611.69;;;6.27;100.00
7407;BME280;3745;56.964;24.128;2023-12-29T09:39:30;99600.75;;;6.22;100.00
7407;BME280;3745;56.964;24.128;2023-12-29T09:41:58;99569.63;;;6.08;100.00
7407;BME280;3745;56.964;24.128;2023-12-29T09:44:27;99603.31;;;6.28;100.00
7407;BME280;3745;56.964;24.128;2023-12-29T09:47:00;99566.25;;;6.06;100.00
7407;BME280;3745;56.964;24.128;2023-12-29T09:49:27;99600.00;;;6.29;100.00
7407;BME280;3745;56.964;24.128;2023-12-29T09:51:57;99599.19;;;6.30;100.00
7407;BME280;3745;56.964;24.128;2023-12-29T09:54:24;99590.75;;;6.28;100.00
7407;BME280;3745;56.964;24.128;2023-12-29T09:56:51;99476.91;;;5.52;100.00
7407;BME280;3745;56.964;24.128;2023-12-29T09:59:17;99608.28;;;6.22;100.00
7407;BME280;3745;56.964;24.128;2023-12-29T10:01:45;99583.03;;;6.10;100.00
7407;BME280;3745;56.964;24.128;2023-12-29T10:04:11;99603.25;;;6.22;100.00
7407;BME280;3745;56.964;24.128;2023-12-29T10:06:40;99564.56;;;6.05;100.00
7407;BME280;3745;56.964;24.128;2023-12-29T10:09:10;99549.31;;;5.89;100.00
7407;BME280;3745;56.964;24.128;2023-12-29T10:11:37;99573.81;;;6.09;100.00
7407;BME280;3745;56.964;24.128;2023-12-29T10:14:15;99594.94;;;6.26;100.00
7407;BME280;3745;56.964;24.128;2023-12-29T10:16:52;99529.22;;;5.86;100.00
7407;BME280;3745;56.964;24.128;2023-12-29T10:19:44;99594.09;;;6.24;100.00
7407;BME280;3745;56.964;24.128;2023-12-29T10:22:20;99545.22;;;5.96;100.00
7407;BME280;3745;56.964;24.128;2023-12-29T10:24:46;99569.69;;;6.14;100.00
7407;BME280;3745;56.964;24.128;2023-12-29T10:27:13;99564.63;;;6.11;100.00
7407;BME280;3745;56.964;24.128;2023-12-29T10:29:38;99584.81;;;6.20;100.00
7407;BME280;3745;56.964;24.128;2023-12-29T10:32:04;99557.84;;;6.04;100.00
7407;BME280;3745;56.964;24.128;2023-12-29T10:34:30;99583.22;;;6.28;100.00
7407;BME280;3745;56.964;24.128;2023-12-29T10:36:58;99582.34;;;6.23;100.00
7407;BME280;3745;56.964;24.128;2023-12-29T10:39:24;99584.91;;;6.29;100.00
7407;BME280;3745;56.964;24.128;2023-12-29T10:42:02;99585.78;;;6.31;100.00
7407;BME280;3745;56.964;24.128;2023-12-29T10:44:29;99539.38;;;5.98;100.00
7407;BME280;3745;56.964;24.128;2023-12-29T10:46:55;99576.53;;;6.27;100.00
7407;BME280;3745;56.964;24.128;2023-12-29T10:49:20;99573.19;;;6.28;100.00
7407;BME280;3745;56.964;24.128;2023-12-29T10:51:47;99569.84;;;6.29;100.00
7407;BME280;3745;56.964;24.128;2023-12-29T10:54:19;99569.88;;;6.32;100.00
7407;BME280;3745;56.964;24.128;2023-12-29T10:57:01;99536.09;;;6.03;100.00
7407;BME280;3745;56.964;24.128;2023-12-29T10:59:28;99521.78;;;5.95;100.00
7407;BME280;3745;56.964;24.128;2023-12-29T11:01:53;99543.69;;;6.09;100.00
7407;BME280;3745;56.964;24.128;2023-12-29T11:04:22;99565.56;;;6.22;100.00
7407;BME280;3745;56.964;24.128;2023-12-29T11:06:48;99559.75;;;6.23;100.00
7407;BME280;3745;56.964;24.128;2023-12-29T11:09:29;99551.38;;;6.24;100.00
7407;BME280;3745;56.964;24.128;2023-12-29T11:11:57;99519.41;;;6.08;100.00
7407;BME280;3745;56.964;24.128;2023-12-29T11:14:25;99548.03;;;6.25;100.00
7407;BME280;3745;56.964;24.128;2023-12-29T11:16:52;99526.19;;;6.15;100.00
7407;BME280;3745;56.964;24.128;2023-12-29T11:19:18;99509.31;;;6.05;100.00
7407;BME280;3745;56.964;24.128;2023-12-29T11:21:44;99550.53;;;6.25;100.00
7407;BME280;3745;56.964;24.128;2023-12-29T11:24:10;99549.69;;;6.23;100.00
7407;BME280;3745;56.964;24.128;2023-12-29T11:26:36;99549.69;;;6.23;100.00
7407;BME280;3745;56.964;24.128;2023-12-29T11:29:03;99506.72;;;5.95;100.00
7407;BME280;3745;56.964;24.128;2023-12-29T11:31:30;99506.72;;;5.95;100.00
7407;BME280;3745;56.964;24.128;2023-12-29T11:34:39;99539.56;;;6.14;100.00
7407;BME280;3745;56.964;24.128;2023-12-29T11:42:33;99517.72;;;6.08;100.00
7407;BME280;3745;56.964;24.128;2023-12-29T11:45:24;99516.09;;;6.12;100.00
7407;BME280;3745;56.964;24.128;2023-12-29T11:47:50;99522.81;;;6.16;100.00
7407;BME280;3745;56.964;24.128;2023-12-29T11:50:31;99517.03;;;6.23;100.00
7407;BME280;3745;56.964;24.128;2023-12-29T11:52:58;99512.81;;;6.19;100.00
7407;BME280;3745;56.964;24.128;2023-12-29T11:55:29;99493.47;;;6.10;100.00
7407;BME280;3745;56.964;24.128;2023-12-29T11:57:55;99521.25;;;6.24;100.00
7407;BME280;3745;56.964;24.128;2023-12-29T12:00:40;99522.06;;;6.21;100.00
7407;BME280;3745;56.964;24.128;2023-12-29T12:03:24;99518.72;;;6.24;100.00
7407;BME280;3745;56.964;24.128;2023-12-29T12:05:51;99455.59;;;5.87;100.00
7407;BME280;3745;56.964;24.128;2023-12-29T12:08:34;99503.69;;;6.27;100.00
7407;BME280;3745;56.964;24.128;2023-12-29T12:13:57;99506.25;;;6.33;100.00
7407;BME280;3745;56.964;24.128;2023-12-29T12:16:50;99502.88;;;6.31;100.00
7407;BME280;3745;56.964;24.128;2023-12-29T12:19:17;99474.28;;;6.17;100.00
7407;BME280;3745;56.964;24.128;2023-12-29T12:21:46;99465.00;;;6.08;100.00
7407;BME280;3745;56.964;24.128;2023-12-29T12:24:20;99481.00;;;6.18;100.00
7407;BME280;3745;56.964;24.128;2023-12-29T12:26:45;99489.44;;;6.26;100.00
7407;BME280;3745;56.964;24.128;2023-12-29T12:29:13;99507.09;;;6.33;100.00
7407;BME280;3745;56.964;24.128;2023-12-29T12:31:59;99358.13;;;5.47;100.00
7407;BME280;3745;56.964;24.128;2023-12-29T12:34:25;99497.13;;;6.44;100.00
7407;BME280;3745;56.964;24.128;2023-12-29T12:36:52;99434.00;;;6.05;100.00
7407;BME280;3745;56.964;24.128;2023-12-29T12:39:18;99464.28;;;6.23;100.00
7407;BME280;3745;56.964;24.128;2023-12-29T12:41:45;99453.41;;;6.21;100.00
7407;BME280;3745;56.964;24.128;2023-12-29T12:44:13;99456.78;;;6.24;100.00
7407;BME280;3745;56.964;24.128;2023-12-29T12:46:51;99435.78;;;6.15;100.00
7407;BME280;3745;56.964;24.128;2023-12-29T12:49:22;99479.47;;;6.35;100.00
7407;BME280;3745;56.964;24.128;2023-12-29T12:51:48;99457.53;;;6.19;100.00
7407;BME280;3745;56.964;24.128;2023-12-29T12:54:17;99473.56;;;6.31;100.00
7407;BME280;3745;56.964;24.128;2023-12-29T12:56:44;99477.78;;;6.34;100.00
7407;BME280;3745;56.964;24.128;2023-12-29T12:59:11;99407.13;;;5.97;100.00
7407;BME280;3745;56.964;24.128;2023-12-29T13:01:37;99477.84;;;6.40;100.00
7407;BME280;3745;56.964;24.128;2023-12-29T13:04:04;99449.22;;;6.23;100.00
7407;BME280;3745;56.964;24.128;2023-12-29T13:06:33;99469.41;;;6.32;100.00
7407;BME280;3745;56.964;24.128;2023-12-29T13:09:04;99434.91;;;6.16;100.00
7407;BME280;3745;56.964;24.128;2023-12-29T13:11:37;99476.91;;;6.27;100.00
7407;BME280;3745;56.964;24.128;2023-12-29T13:14:03;99472.69;;;6.25;100.00
7407;BME280;3745;56.964;24.128;2023-12-29T13:16:37;99476.09;;;6.30;100.00
7407;BME280;3745;56.964;24.128;2023-12-29T13:21:42;99445.78;;;6.12;100.00
7407;BME280;3745;56.964;24.128;2023-12-29T13:24:07;99449.19;;;6.18;100.00